createdAt,value
2023-12-09T00:01:05.556Z,20.25
2023-12-09T00:03:33.499Z,17.15
2023-12-09T00:06:01.257Z,10.45
2023-12-09T00:08:28.956Z,11.70
2023-12-09T00:10:56.508Z,8.40
2023-12-09T00:13:24.139Z,8.45
2023-12-09T00:15:51.741Z,11.93
2023-12-09T00:18:19.433Z,9.68
2023-12-09T00:20:47.099Z,11.95
2023-12-09T00:23:14.683Z,19.15
2023-12-09T00:25:42.261Z,10.65
2023-12-09T00:28:09.778Z,8.32
2023-12-09T00:30:37.423Z,11.93
2023-12-09T00:33:05.077Z,5.88
2023-12-09T00:35:32.746Z,16.55
2023-12-09T00:38:00.254Z,7.70
2023-12-09T00:40:29.219Z,8.32
2023-12-09T00:42:56.847Z,10.18
2023-12-09T00:45:26.255Z,11.60
2023-12-09T00:47:53.981Z,6.97
2023-12-09T00:50:21.620Z,9.82
2023-12-09T00:52:49.139Z,10.75
2023-12-09T00:55:16.692Z,10.60
2023-12-09T00:57:46.349Z,7.95
2023-12-09T01:00:16.499Z,8.35
2023-12-09T01:02:44.181Z,10.90
2023-12-09T01:05:12.216Z,7.38
2023-12-09T01:07:39.830Z,9.50
2023-12-09T01:10:07.968Z,16.05
2023-12-09T01:12:35.654Z,8.43
2023-12-09T01:15:04.358Z,8.85
2023-12-09T01:17:31.965Z,14.45
2023-12-09T01:19:59.553Z,11.82
2023-12-09T01:22:27.632Z,9.95
2023-12-09T01:24:55.715Z,9.13
2023-12-09T01:27:23.249Z,7.32
2023-12-09T01:29:50.790Z,12.93
2023-12-09T01:32:18.340Z,11.98
2023-12-09T01:34:46.296Z,7.40
2023-12-09T01:37:13.947Z,10.48
2023-12-09T01:39:41.585Z,13.93
2023-12-09T01:42:09.999Z,9.55
2023-12-09T01:44:37.593Z,12.48
2023-12-09T01:47:05.232Z,8.05
2023-12-09T01:49:34.070Z,9.63
2023-12-09T01:52:02.776Z,8.85
2023-12-09T01:54:30.481Z,10.65
2023-12-09T01:56:58.896Z,15.93
2023-12-09T01:59:26.812Z,15.60
2023-12-09T02:01:54.770Z,9.10
2023-12-09T02:04:23.015Z,5.55
2023-12-09T02:06:50.652Z,13.70
2023-12-09T02:09:19.587Z,10.50
2023-12-09T02:12:40.720Z,10.75
2023-12-09T02:15:14.110Z,10.23
2023-12-09T02:17:48.798Z,9.18
2023-12-09T02:20:16.657Z,12.70
2023-12-09T02:22:44.372Z,15.68
2023-12-09T02:25:12.037Z,7.97
2023-12-09T02:27:53.449Z,10.35
2023-12-09T02:30:42.578Z,11.35
2023-12-09T02:33:12.641Z,13.63
2023-12-09T02:35:44.109Z,10.40
2023-12-09T02:38:12.499Z,8.20
2023-12-09T02:40:42.787Z,13.23
2023-12-09T02:43:11.377Z,17.20
2023-12-09T02:45:38.945Z,11.50
2023-12-09T02:48:07.270Z,16.65
2023-12-09T02:50:34.941Z,18.85
2023-12-09T02:53:02.455Z,12.65
2023-12-09T02:55:30.108Z,16.20
2023-12-09T02:57:57.634Z,13.93
2023-12-09T03:00:25.541Z,12.27
2023-12-09T03:02:53.180Z,14.55
2023-12-09T03:05:20.900Z,12.43
2023-12-09T03:07:48.509Z,18.30
2023-12-09T03:10:16.170Z,13.57
2023-12-09T03:12:43.777Z,17.67
2023-12-09T03:15:11.494Z,22.17
2023-12-09T03:17:40.571Z,11.60
2023-12-09T03:20:10.219Z,19.10
2023-12-09T03:22:37.909Z,16.35
2023-12-09T03:25:06.153Z,12.88
2023-12-09T03:27:33.998Z,19.48
2023-12-09T03:30:01.665Z,17.08
2023-12-09T03:32:29.700Z,10.85
2023-12-09T03:34:57.484Z,19.27
2023-12-09T03:37:25.016Z,9.70
2023-12-09T03:39:52.587Z,13.52
2023-12-09T03:42:20.141Z,10.50
2023-12-09T03:44:47.735Z,13.48
2023-12-09T03:47:22.157Z,15.98
2023-12-09T03:49:56.546Z,23.13
2023-12-09T03:52:24.814Z,23.17
2023-12-09T03:54:52.594Z,17.70
2023-12-09T03:57:20.192Z,15.80
2023-12-09T03:59:47.828Z,16.33
2023-12-09T04:02:15.602Z,17.80
2023-12-09T04:04:43.197Z,19.88
2023-12-09T04:07:10.850Z,15.68
2023-12-09T04:09:38.431Z,11.75
2023-12-09T04:12:06.282Z,12.65
2023-12-09T04:14:33.938Z,14.20
2023-12-09T04:17:01.442Z,17.40
2023-12-09T04:19:29.443Z,13.43
2023-12-09T04:21:57.073Z,16.50
2023-12-09T04:24:24.706Z,17.42
2023-12-09T04:26:52.773Z,16.45
2023-12-09T04:29:20.475Z,13.90
2023-12-09T04:31:48.007Z,11.50
2023-12-09T04:34:15.662Z,11.65
2023-12-09T04:36:43.289Z,14.00
2023-12-09T04:39:11.420Z,13.48
2023-12-09T04:41:39.744Z,20.52
2023-12-09T04:44:07.817Z,16.67
2023-12-09T04:46:35.762Z,20.02
2023-12-09T04:49:04.114Z,16.98
2023-12-09T04:51:31.840Z,17.85
2023-12-09T04:53:59.364Z,15.52
2023-12-09T04:56:26.985Z,15.65
2023-12-09T04:58:54.475Z,12.57
2023-12-09T05:01:22.588Z,21.45
2023-12-09T05:03:50.327Z,19.15
2023-12-09T05:06:17.993Z,20.48
2023-12-09T05:08:45.594Z,21.30
2023-12-09T05:11:13.185Z,8.93
2023-12-09T05:13:40.753Z,13.68
2023-12-09T05:16:08.478Z,14.55
2023-12-09T05:18:36.474Z,16.50
2023-12-09T05:21:06.528Z,16.70
2023-12-09T05:23:34.746Z,20.35
2023-12-09T05:26:02.288Z,13.90
2023-12-09T05:28:31.334Z,11.13
2023-12-09T05:30:58.978Z,10.00
2023-12-09T05:33:26.577Z,13.20
2023-12-09T05:35:54.364Z,27.48
2023-12-09T05:38:21.940Z,12.02
2023-12-09T05:40:49.432Z,20.60
2023-12-09T05:43:16.943Z,18.73
2023-12-09T05:45:44.531Z,15.75
2023-12-09T05:48:12.436Z,17.58
2023-12-09T05:50:40.138Z,11.13
2023-12-09T05:53:08.549Z,7.93
2023-12-09T05:55:36.115Z,12.52
2023-12-09T05:58:04.324Z,13.85
2023-12-09T06:00:33.359Z,12.45
2023-12-09T06:03:02.413Z,16.58
2023-12-09T06:05:30.041Z,10.98
2023-12-09T06:07:57.655Z,18.38
2023-12-09T06:10:25.221Z,11.82
2023-12-09T06:12:52.841Z,16.60
2023-12-09T06:15:20.480Z,10.20
2023-12-09T06:17:48.016Z,15.55
2023-12-09T06:20:15.697Z,12.45
2023-12-09T06:22:43.612Z,6.88
2023-12-09T06:25:11.201Z,12.65
2023-12-09T06:27:39.015Z,7.35
2023-12-09T06:30:07.371Z,11.68
2023-12-09T06:35:25.843Z,10.05
2023-12-09T06:37:55.861Z,7.72
2023-12-09T06:40:26.801Z,11.60
2023-12-09T06:42:54.311Z,11.27
2023-12-09T06:45:22.667Z,5.55
2023-12-09T06:47:55.062Z,4.13
2023-12-09T06:50:23.485Z,8.93
2023-12-09T06:52:51.063Z,8.20
2023-12-09T06:55:18.683Z,11.15
2023-12-09T06:57:46.345Z,8.45
2023-12-09T07:00:14.609Z,5.55
2023-12-09T07:02:52.918Z,6.20
2023-12-09T07:05:27.659Z,3.95
2023-12-09T07:07:55.551Z,6.30
2023-12-09T07:10:23.052Z,6.32
2023-12-09T07:12:50.745Z,5.43
2023-12-09T07:15:18.364Z,4.18
2023-12-09T07:17:45.932Z,4.40
2023-12-09T07:20:13.707Z,5.55
2023-12-09T07:22:41.324Z,3.28
2023-12-09T07:25:09.023Z,6.47
2023-12-09T07:27:36.610Z,4.70
2023-12-09T07:30:04.929Z,10.05
2023-12-09T07:32:33.566Z,3.85
2023-12-09T07:35:01.303Z,5.55
2023-12-09T07:37:29.244Z,6.55
2023-12-09T07:39:56.865Z,5.55
2023-12-09T07:42:24.999Z,2.63
2023-12-09T07:44:52.744Z,3.30
2023-12-09T07:47:23.285Z,5.10
2023-12-09T07:49:50.844Z,4.35
2023-12-09T07:52:18.515Z,3.65
2023-12-09T07:54:46.061Z,8.75
2023-12-09T07:57:15.503Z,3.90
2023-12-09T07:59:43.049Z,3.92
2023-12-09T08:02:10.598Z,5.43
2023-12-09T08:04:39.474Z,6.78
2023-12-09T08:07:07.081Z,8.18
2023-12-09T08:09:34.735Z,1.85
2023-12-09T08:12:02.371Z,5.07
2023-12-09T08:14:30.025Z,28.88
2023-12-09T08:16:57.560Z,3.45
2023-12-09T08:19:25.102Z,7.85
2023-12-09T08:21:52.865Z,10.57
2023-12-09T08:24:20.558Z,2.00
2023-12-09T08:26:48.329Z,36.17
2023-12-09T08:29:15.859Z,3.13
2023-12-09T08:31:47.791Z,5.07
2023-12-09T08:34:15.509Z,2.22
2023-12-09T08:36:43.258Z,4.28
2023-12-09T08:39:11.905Z,2.42
2023-12-09T08:41:39.576Z,8.38
2023-12-09T08:44:07.845Z,11.13
2023-12-09T08:46:35.347Z,2.40
2023-12-09T08:49:04.161Z,4.82
2023-12-09T08:51:31.888Z,3.38
2023-12-09T08:53:59.556Z,3.63
2023-12-09T08:56:27.121Z,0.85
2023-12-09T08:58:54.642Z,4.82
2023-12-09T09:01:22.283Z,9.35
2023-12-09T09:03:49.927Z,4.40
2023-12-09T09:06:18.996Z,2.10
2023-12-09T09:08:46.593Z,1.42
2023-12-09T09:11:14.209Z,2.53
2023-12-09T09:13:41.768Z,1.95
2023-12-09T09:16:09.390Z,2.67
2023-12-09T09:18:37.009Z,1.00
2023-12-09T09:21:04.766Z,12.82
2023-12-09T09:23:32.383Z,2.85
2023-12-09T09:25:59.953Z,5.50
2023-12-09T09:28:27.663Z,3.90
2023-12-09T09:30:55.261Z,2.92
2023-12-09T09:33:22.884Z,2.80
2023-12-09T09:35:52.467Z,1.75
2023-12-09T09:38:19.984Z,0.98
2023-12-09T09:40:48.147Z,1.45
2023-12-09T09:43:22.548Z,1.98
2023-12-09T09:45:52.293Z,0.85
2023-12-09T09:48:25.077Z,1.58
2023-12-09T09:50:53.730Z,2.30
2023-12-09T09:53:35.404Z,1.15
2023-12-09T09:56:04.426Z,0.98
2023-12-09T09:58:33.861Z,2.83
2023-12-09T10:01:05.755Z,0.73
2023-12-09T10:03:33.426Z,1.33
2023-12-09T10:06:01.731Z,0.75
2023-12-09T10:08:30.571Z,1.10
2023-12-09T10:10:58.584Z,1.65
2023-12-09T10:13:26.110Z,1.55
2023-12-09T10:15:53.701Z,1.77
2023-12-09T10:18:25.473Z,1.48
2023-12-09T10:20:53.180Z,1.38
2023-12-09T10:23:23.372Z,1.27
2023-12-09T10:25:50.929Z,0.82
2023-12-09T10:28:18.623Z,1.73
2023-12-09T10:30:47.233Z,0.65
2023-12-09T10:33:16.512Z,1.33
2023-12-09T10:35:46.958Z,1.83
2023-12-09T10:38:16.960Z,3.28
2023-12-09T10:40:44.979Z,0.90
2023-12-09T10:43:14.183Z,0.80
2023-12-09T10:45:41.917Z,3.70
2023-12-09T10:48:09.738Z,3.53
2023-12-09T10:50:38.960Z,2.95
2023-12-09T10:53:07.109Z,3.45
2023-12-09T10:55:34.764Z,3.80
2023-12-09T10:58:05.495Z,2.35
2023-12-09T11:00:34.461Z,8.18
2023-12-09T11:03:02.965Z,2.08
2023-12-09T11:05:33.759Z,1.85
2023-12-09T11:08:02.036Z,5.68
2023-12-09T11:10:29.734Z,7.72
2023-12-09T11:12:57.327Z,3.60
2023-12-09T11:15:32.575Z,3.13
2023-12-09T11:18:09.370Z,1.80
2023-12-09T11:20:42.325Z,2.05
2023-12-09T11:23:14.074Z,1.90
2023-12-09T11:25:45.164Z,1.67
2023-12-09T11:28:13.658Z,2.67
2023-12-09T11:30:47.656Z,5.78
2023-12-09T11:33:15.613Z,2.55
2023-12-09T11:35:47.013Z,7.15
2023-12-09T11:38:16.288Z,3.53
2023-12-09T11:40:44.790Z,3.25
2023-12-09T11:43:13.870Z,3.80
2023-12-09T11:45:42.082Z,3.70
2023-12-09T11:48:10.715Z,5.93
2023-12-09T11:50:41.443Z,2.22
2023-12-09T11:53:08.979Z,4.97
2023-12-09T11:55:36.595Z,1.90
2023-12-09T11:58:04.874Z,3.55
2023-12-09T12:00:32.579Z,4.05
2023-12-09T12:03:00.718Z,6.90
2023-12-09T12:05:28.398Z,3.67
2023-12-09T12:07:56.016Z,2.70
2023-12-09T12:10:23.609Z,4.28
2023-12-09T12:12:51.237Z,3.35
2023-12-09T12:15:18.951Z,7.43
2023-12-09T12:17:46.666Z,2.22
2023-12-09T12:20:14.453Z,2.78
2023-12-09T12:22:42.425Z,1.88
2023-12-09T12:25:10.920Z,3.90
2023-12-09T12:27:44.928Z,4.50
2023-12-09T12:30:14.475Z,1.25
2023-12-09T12:32:43.730Z,5.30
2023-12-09T12:35:11.702Z,4.22
2023-12-09T12:37:39.458Z,2.50
2023-12-09T12:40:07.647Z,1.00
2023-12-09T12:42:36.225Z,8.70
2023-12-09T12:45:16.296Z,9.02
2023-12-09T12:47:44.908Z,3.22
2023-12-09T12:50:12.696Z,4.40
2023-12-09T12:52:40.746Z,3.65
2023-12-09T12:55:13.818Z,25.13
2023-12-09T12:57:41.931Z,4.13
2023-12-09T13:00:12.608Z,2.28
2023-12-09T13:02:40.689Z,4.32
2023-12-09T13:05:08.378Z,6.43
2023-12-09T13:07:36.117Z,3.28
2023-12-09T13:10:05.087Z,5.45
2023-12-09T13:12:33.086Z,6.22
2023-12-09T13:15:01.170Z,2.75
2023-12-09T13:17:28.517Z,4.00
2023-12-09T13:19:55.989Z,7.53
2023-12-09T13:22:23.593Z,7.43
2023-12-09T13:24:54.041Z,8.48
2023-12-09T13:27:21.965Z,3.17
2023-12-09T13:29:49.759Z,11.40
2023-12-09T13:32:17.618Z,11.50
2023-12-09T13:34:45.282Z,10.00
2023-12-09T13:37:13.017Z,9.63
2023-12-09T13:39:41.272Z,13.82
2023-12-09T13:42:09.825Z,7.55
2023-12-09T13:44:40.377Z,9.60
2023-12-09T13:47:08.273Z,12.77
2023-12-09T13:49:36.099Z,9.50
2023-12-09T13:52:03.837Z,15.85
2023-12-09T13:54:31.486Z,19.88
2023-12-09T13:56:59.110Z,15.38
2023-12-09T13:59:26.720Z,15.65
2023-12-09T14:01:54.418Z,23.92
2023-12-09T14:04:22.316Z,19.02
2023-12-09T14:06:50.031Z,26.52
2023-12-09T14:09:18.841Z,11.25
2023-12-09T14:11:46.237Z,13.68
2023-12-09T14:14:13.561Z,20.27
2023-12-09T14:16:42.099Z,25.73
2023-12-09T14:19:11.592Z,25.45
2023-12-09T14:21:39.626Z,20.75
2023-12-09T14:24:07.670Z,14.88
2023-12-09T14:26:35.948Z,23.70
2023-12-09T14:29:03.746Z,26.90
2023-12-09T14:31:31.490Z,18.20
2023-12-09T14:33:59.489Z,24.65
2023-12-09T14:36:27.422Z,19.00
2023-12-09T14:38:55.041Z,13.82
2023-12-09T14:41:22.825Z,21.88
2023-12-09T14:43:55.882Z,18.02
2023-12-09T14:46:27.685Z,20.02
2023-12-09T14:48:55.668Z,29.48
2023-12-09T14:51:37.138Z,17.27
2023-12-09T14:54:16.508Z,22.48
2023-12-09T14:56:56.630Z,15.70
2023-12-09T14:59:24.259Z,22.88
2023-12-09T15:01:52.977Z,23.27
2023-12-09T15:04:22.746Z,25.15
2023-12-09T15:06:51.950Z,16.50
2023-12-09T15:09:19.771Z,10.88
2023-12-09T15:11:50.258Z,17.08
2023-12-09T15:14:17.868Z,14.60
2023-12-09T15:16:45.477Z,15.70
2023-12-09T15:19:13.116Z,20.75
2023-12-09T15:21:40.764Z,15.25
2023-12-09T15:24:08.606Z,20.95
2023-12-09T15:26:36.799Z,13.57
2023-12-09T15:29:04.397Z,14.68
2023-12-09T15:31:32.025Z,22.95
2023-12-09T15:34:00.184Z,20.10
2023-12-09T15:36:28.010Z,14.05
2023-12-09T15:38:55.628Z,17.63
2023-12-09T15:41:23.208Z,14.85
2023-12-09T15:43:50.872Z,24.77
2023-12-09T15:46:18.597Z,31.02
2023-12-09T15:48:46.677Z,17.48
2023-12-09T15:51:15.035Z,25.52
2023-12-09T15:53:43.009Z,16.05
2023-12-09T15:56:10.806Z,23.38
2023-12-09T15:58:38.450Z,22.45
2023-12-09T16:01:06.182Z,23.38
2023-12-09T16:03:33.980Z,20.02
2023-12-09T16:06:02.443Z,32.58
2023-12-09T16:08:30.187Z,26.52
2023-12-09T16:10:57.751Z,21.27
2023-12-09T16:13:26.084Z,29.58
2023-12-09T16:15:53.745Z,31.30
2023-12-09T16:18:21.517Z,20.77
2023-12-09T16:20:49.866Z,34.60
2023-12-09T16:23:17.385Z,20.10
2023-12-09T16:25:45.010Z,20.98
2023-12-09T16:28:12.594Z,25.75
2023-12-09T16:30:40.707Z,31.08
2023-12-09T16:33:08.951Z,26.73
2023-12-09T16:35:36.632Z,22.23
2023-12-09T16:38:04.227Z,26.38
2023-12-09T16:40:34.360Z,25.90
2023-12-09T16:43:02.011Z,28.58
2023-12-09T16:45:30.217Z,18.50
2023-12-09T16:47:58.202Z,21.15
2023-12-09T16:50:27.033Z,30.38
2023-12-09T16:52:54.629Z,20.67
2023-12-09T16:55:22.305Z,22.63
2023-12-09T16:57:50.056Z,27.65
2023-12-09T17:00:18.130Z,37.63
2023-12-09T17:02:45.718Z,22.40
2023-12-09T17:05:13.393Z,26.73
2023-12-09T17:07:40.988Z,24.65
2023-12-09T17:10:09.297Z,24.58
2023-12-09T17:12:37.997Z,20.45
2023-12-09T17:15:06.686Z,31.42
2023-12-09T17:17:34.689Z,28.05
2023-12-09T17:20:02.443Z,26.10
2023-12-09T17:22:32.430Z,27.65
2023-12-09T17:25:00.017Z,25.42
2023-12-09T17:27:27.848Z,27.45
2023-12-09T17:29:55.396Z,30.70
2023-12-09T17:32:23.782Z,30.30
2023-12-09T17:34:51.503Z,30.70
2023-12-09T17:37:19.251Z,22.08
2023-12-09T17:39:46.918Z,32.30
2023-12-09T17:42:14.663Z,26.90
2023-12-09T17:44:42.845Z,25.52
2023-12-09T17:47:10.367Z,31.05
2023-12-09T17:49:38.176Z,24.33
2023-12-09T17:52:05.852Z,27.95
2023-12-09T17:54:33.491Z,34.08
2023-12-09T17:57:01.086Z,30.13
2023-12-09T17:59:28.759Z,20.95
2023-12-09T18:01:56.394Z,28.83
2023-12-09T18:04:25.230Z,23.80
2023-12-09T18:06:53.131Z,29.83
2023-12-09T18:09:20.774Z,19.15
2023-12-09T18:11:48.451Z,35.85
2023-12-09T18:14:16.031Z,26.98
2023-12-09T18:16:43.891Z,29.58
2023-12-09T18:19:11.523Z,17.60
2023-12-09T18:21:40.396Z,16.13
2023-12-09T18:24:08.174Z,26.88
2023-12-09T18:26:35.872Z,30.67
2023-12-09T18:29:04.027Z,25.33
2023-12-09T18:31:31.989Z,32.80
2023-12-09T18:34:00.002Z,20.73
2023-12-09T18:36:27.859Z,22.83
2023-12-09T18:38:55.426Z,19.40
2023-12-09T18:41:23.028Z,24.00
2023-12-09T18:43:50.608Z,25.13
2023-12-09T18:46:18.340Z,21.10
2023-12-09T18:48:46.068Z,19.15
2023-12-09T18:51:13.770Z,30.80
2023-12-09T18:53:41.280Z,20.23
2023-12-09T18:56:09.997Z,35.55
2023-12-09T18:58:37.617Z,24.55
2023-12-09T19:01:10.735Z,25.23
2023-12-09T19:03:39.640Z,19.92
2023-12-09T19:06:08.878Z,28.23
2023-12-09T19:08:38.739Z,23.85
2023-12-09T19:11:06.949Z,23.55
2023-12-09T19:13:34.567Z,29.60
2023-12-09T19:16:03.573Z,28.83
2023-12-09T19:18:31.272Z,30.52
2023-12-09T19:20:59.619Z,15.13
2023-12-09T19:23:27.216Z,21.02
2023-12-09T19:25:54.826Z,27.55
2023-12-09T19:28:22.500Z,34.05
2023-12-09T19:30:50.169Z,27.67
2023-12-09T19:33:18.927Z,23.80
2023-12-09T19:35:46.545Z,30.58
2023-12-09T19:38:14.471Z,17.25
2023-12-09T19:40:42.064Z,25.88
2023-12-09T19:43:09.645Z,22.88
2023-12-09T19:45:37.228Z,29.70
2023-12-09T19:48:05.299Z,27.45
2023-12-09T19:50:32.944Z,28.40
2023-12-09T19:53:02.126Z,15.82
2023-12-09T19:55:29.705Z,26.20
2023-12-09T19:57:58.435Z,29.48
2023-12-09T20:00:26.152Z,21.08
2023-12-09T20:02:53.951Z,29.75
2023-12-09T20:05:23.087Z,32.03
2023-12-09T20:07:50.723Z,21.02
2023-12-09T20:10:18.401Z,20.98
2023-12-09T20:12:46.089Z,29.00
2023-12-09T20:15:13.791Z,26.70
2023-12-09T20:17:41.367Z,20.27
2023-12-09T20:20:09.417Z,24.73
2023-12-09T20:22:37.460Z,33.55
2023-12-09T20:25:05.395Z,17.98
2023-12-09T20:27:33.707Z,32.75
2023-12-09T20:30:03.334Z,27.83
2023-12-09T20:32:31.322Z,33.00
2023-12-09T20:34:59.103Z,11.13
2023-12-09T20:37:26.654Z,13.20
2023-12-09T20:39:58.059Z,20.20
2023-12-09T20:42:25.929Z,24.23
2023-12-09T20:44:53.675Z,25.65
2023-12-09T20:47:21.238Z,13.60
2023-12-09T20:49:49.040Z,20.30
2023-12-09T20:52:17.314Z,23.33
2023-12-09T20:54:47.807Z,19.35
2023-12-09T20:57:15.680Z,27.30
2023-12-09T20:59:44.325Z,18.17
2023-12-09T21:02:12.017Z,15.95
2023-12-09T21:04:45.283Z,21.83
2023-12-09T21:07:14.061Z,21.60
2023-12-09T21:09:41.853Z,22.48
2023-12-09T21:12:10.979Z,17.73
2023-12-09T21:14:39.707Z,10.75
2023-12-09T21:17:07.403Z,13.68
2023-12-09T21:19:35.935Z,35.67
2023-12-09T21:22:04.103Z,13.73
2023-12-09T21:24:32.664Z,22.48
2023-12-09T21:27:00.349Z,16.75
2023-12-09T21:29:28.560Z,14.85
2023-12-09T21:31:58.811Z,15.90
2023-12-09T21:34:26.396Z,16.97
2023-12-09T21:36:54.054Z,16.10
2023-12-09T21:39:21.635Z,20.50
2023-12-09T21:41:49.428Z,15.68
2023-12-09T21:44:17.106Z,17.40
2023-12-09T21:46:44.746Z,17.70
2023-12-09T21:49:12.474Z,15.07
2023-12-09T21:51:42.929Z,15.38
2023-12-09T21:54:10.708Z,16.38
2023-12-09T21:56:38.336Z,16.77
2023-12-09T21:59:06.573Z,14.93
2023-12-09T22:01:36.672Z,15.88
2023-12-09T22:04:04.692Z,20.42
2023-12-09T22:06:32.374Z,20.67
2023-12-09T22:09:00.720Z,15.40
2023-12-09T22:11:28.420Z,16.33
2023-12-09T22:13:56.412Z,17.15
2023-12-09T22:16:24.031Z,19.00
2023-12-09T22:18:51.844Z,13.73
2023-12-09T22:21:21.117Z,14.82
2023-12-09T22:23:48.803Z,20.17
2023-12-09T22:26:16.420Z,12.38
2023-12-09T22:28:44.785Z,13.30
2023-12-09T22:31:13.718Z,14.55
2023-12-09T22:33:41.767Z,25.85
2023-12-09T22:36:10.270Z,18.80
2023-12-09T22:38:37.813Z,17.58
2023-12-09T22:41:05.799Z,14.90
2023-12-09T22:43:33.520Z,11.35
2023-12-09T22:46:01.077Z,25.27
2023-12-09T22:48:28.854Z,11.60
2023-12-09T22:50:57.028Z,20.70
2023-12-09T22:53:24.611Z,15.43
2023-12-09T22:55:52.220Z,13.88
2023-12-09T22:58:39.719Z,21.15
2023-12-09T23:01:07.578Z,20.27
2023-12-09T23:03:35.748Z,19.77
2023-12-09T23:06:03.917Z,22.58
2023-12-09T23:08:31.507Z,13.70
2023-12-09T23:10:59.092Z,20.42
2023-12-09T23:13:26.621Z,20.92
2023-12-09T23:15:54.136Z,15.93
2023-12-09T23:18:21.796Z,18.63
2023-12-09T23:20:49.550Z,20.60
2023-12-09T23:23:17.160Z,15.00
2023-12-09T23:25:45.124Z,20.90
2023-12-09T23:28:12.729Z,14.82
2023-12-09T23:30:41.000Z,19.65
2023-12-09T23:33:09.038Z,16.27
2023-12-09T23:35:36.764Z,16.63
2023-12-09T23:38:04.760Z,11.32
2023-12-09T23:40:32.732Z,12.45
2023-12-09T23:43:00.336Z,22.83
2023-12-09T23:45:28.142Z,19.55
2023-12-09T23:47:55.776Z,14.48
2023-12-09T23:50:23.600Z,19.08
2023-12-09T23:52:51.229Z,16.45
2023-12-09T23:55:18.942Z,25.95
2023-12-09T23:57:46.530Z,15.10
